sensor_id;sensor_type;location;lat;lon;timestamp;P1;durP1;ratioP1;P2;durP2;ratioP2
14203;SDS011;7185;51.854;6.622;2022-07-15T00:02:06;10.82;;;2.55;;
14203;SDS011;7185;51.854;6.622;2022-07-15T00:04:38;5.65;;;2.70;;
14203;SDS011;7185;51.854;6.622;2022-07-15T00:07:10;9.85;;;2.95;;
14203;SDS011;7185;51.854;6.622;2022-07-15T00:09:44;6.30;;;2.72;;
14203;SDS011;7185;51.854;6.622;2022-07-15T00:12:33;7.45;;;2.22;;
14203;SDS011;7185;51.854;6.622;2022-07-15T00:15:05;7.40;;;2.60;;
14203;SDS011;7185;51.854;6.622;2022-07-15T00:17:38;8.25;;;2.97;;
14203;SDS011;7185;51.854;6.622;2022-07-15T00:20:11;7.82;;;2.38;;
14203;SDS011;7185;51.854;6.622;2022-07-15T00:22:44;11.35;;;2.40;;
14203;SDS011;7185;51.854;6.622;2022-07-15T00:25:17;8.45;;;2.28;;
14203;SDS011;7185;51.854;6.622;2022-07-15T00:27:52;8.88;;;2.53;;
14203;SDS011;7185;51.854;6.622;2022-07-15T00:30:28;8.85;;;2.45;;
14203;SDS011;7185;51.854;6.622;2022-07-15T00:33:02;7.53;;;3.00;;
14203;SDS011;7185;51.854;6.622;2022-07-15T00:35:34;7.32;;;2.30;;
14203;SDS011;7185;51.854;6.622;2022-07-15T00:38:07;9.65;;;2.78;;
14203;SDS011;7185;51.854;6.622;2022-07-15T00:40:42;7.03;;;2.10;;
14203;SDS011;7185;51.854;6.622;2022-07-15T00:43:15;8.38;;;2.10;;
14203;SDS011;7185;51.854;6.622;2022-07-15T00:45:48;8.23;;;2.50;;
14203;SDS011;7185;51.854;6.622;2022-07-15T00:48:20;5.07;;;2.30;;
14203;SDS011;7185;51.854;6.622;2022-07-15T00:50:51;6.93;;;2.30;;
14203;SDS011;7185;51.854;6.622;2022-07-15T00:53:23;10.85;;;2.33;;
14203;SDS011;7185;51.854;6.622;2022-07-15T00:56:01;6.93;;;2.30;;
14203;SDS011;7185;51.854;6.622;2022-07-15T00:58:33;9.00;;;2.60;;
14203;SDS011;7185;51.854;6.622;2022-07-15T01:01:08;7.05;;;2.42;;
14203;SDS011;7185;51.854;6.622;2022-07-15T01:03:41;8.10;;;2.42;;
14203;SDS011;7185;51.854;6.622;2022-07-15T01:06:13;10.25;;;2.95;;
14203;SDS011;7185;51.854;6.622;2022-07-15T01:08:45;5.20;;;2.22;;
14203;SDS011;7185;51.854;6.622;2022-07-15T01:11:18;6.85;;;2.05;;
14203;SDS011;7185;51.854;6.622;2022-07-15T01:13:50;8.30;;;2.65;;
14203;SDS011;7185;51.854;6.622;2022-07-15T01:16:22;8.50;;;2.40;;
14203;SDS011;7185;51.854;6.622;2022-07-15T01:18:53;8.50;;;2.20;;
14203;SDS011;7185;51.854;6.622;2022-07-15T01:21:27;6.85;;;2.40;;
14203;SDS011;7185;51.854;6.622;2022-07-15T01:23:59;6.93;;;2.20;;
14203;SDS011;7185;51.854;6.622;2022-07-15T01:26:31;7.30;;;2.60;;
14203;SDS011;7185;51.854;6.622;2022-07-15T01:29:02;8.98;;;2.47;;
14203;SDS011;7185;51.854;6.622;2022-07-15T01:31:34;8.27;;;3.03;;
14203;SDS011;7185;51.854;6.622;2022-07-15T01:34:05;5.30;;;2.10;;
14203;SDS011;7185;51.854;6.622;2022-07-15T01:36:38;6.68;;;2.50;;
14203;SDS011;7185;51.854;6.622;2022-07-15T01:39:10;9.73;;;2.80;;
14203;SDS011;7185;51.854;6.622;2022-07-15T01:41:42;7.80;;;2.58;;
14203;SDS011;7185;51.854;6.622;2022-07-15T01:44:13;7.47;;;2.53;;
14203;SDS011;7185;51.854;6.622;2022-07-15T01:46:45;8.77;;;2.30;;
14203;SDS011;7185;51.854;6.622;2022-07-15T01:49:17;5.88;;;2.40;;
14203;SDS011;7185;51.854;6.622;2022-07-15T01:51:58;9.63;;;3.00;;
14203;SDS011;7185;51.854;6.622;2022-07-15T01:54:31;11.20;;;2.65;;
14203;SDS011;7185;51.854;6.622;2022-07-15T01:57:06;10.32;;;2.83;;
14203;SDS011;7185;51.854;6.622;2022-07-15T01:59:38;8.13;;;2.70;;
14203;SDS011;7185;51.854;6.622;2022-07-15T02:02:09;7.68;;;2.90;;
14203;SDS011;7185;51.854;6.622;2022-07-15T02:04:41;9.77;;;2.55;;
14203;SDS011;7185;51.854;6.622;2022-07-15T02:07:14;11.10;;;3.17;;
14203;SDS011;7185;51.854;6.622;2022-07-15T02:09:46;10.82;;;3.30;;
14203;SDS011;7185;51.854;6.622;2022-07-15T02:12:17;7.10;;;2.97;;
14203;SDS011;7185;51.854;6.622;2022-07-15T02:14:49;7.32;;;2.85;;
14203;SDS011;7185;51.854;6.622;2022-07-15T02:17:21;8.98;;;3.20;;
14203;SDS011;7185;51.854;6.622;2022-07-15T02:19:52;7.85;;;3.67;;
14203;SDS011;7185;51.854;6.622;2022-07-15T02:22:25;7.18;;;3.05;;
14203;SDS011;7185;51.854;6.622;2022-07-15T02:24:58;8.70;;;3.15;;
14203;SDS011;7185;51.854;6.622;2022-07-15T02:27:29;12.70;;;3.88;;
14203;SDS011;7185;51.854;6.622;2022-07-15T02:30:01;9.73;;;3.05;;
14203;SDS011;7185;51.854;6.622;2022-07-15T02:32:33;8.23;;;2.67;;
14203;SDS011;7185;51.854;6.622;2022-07-15T02:35:05;7.63;;;3.00;;
14203;SDS011;7185;51.854;6.622;2022-07-15T02:37:39;8.80;;;3.20;;
14203;SDS011;7185;51.854;6.622;2022-07-15T02:40:12;8.63;;;3.63;;
14203;SDS011;7185;51.854;6.622;2022-07-15T02:42:46;8.95;;;3.40;;
14203;SDS011;7185;51.854;6.622;2022-07-15T02:45:18;9.38;;;3.28;;
14203;SDS011;7185;51.854;6.622;2022-07-15T02:47:51;8.05;;;3.22;;
14203;SDS011;7185;51.854;6.622;2022-07-15T02:50:22;7.60;;;3.17;;
14203;SDS011;7185;51.854;6.622;2022-07-15T02:52:56;7.85;;;3.65;;
14203;SDS011;7185;51.854;6.622;2022-07-15T02:55:28;7.68;;;3.47;;
14203;SDS011;7185;51.854;6.622;2022-07-15T02:57:59;12.93;;;3.65;;
14203;SDS011;7185;51.854;6.622;2022-07-15T03:00:32;8.98;;;3.42;;
14203;SDS011;7185;51.854;6.622;2022-07-15T03:03:04;9.70;;;3.65;;
14203;SDS011;7185;51.854;6.622;2022-07-15T03:05:36;8.88;;;3.38;;
14203;SDS011;7185;51.854;6.622;2022-07-15T03:08:09;10.90;;;4.20;;
14203;SDS011;7185;51.854;6.622;2022-07-15T03:10:41;7.95;;;3.95;;
14203;SDS011;7185;51.854;6.622;2022-07-15T03:13:13;9.70;;;4.05;;
14203;SDS011;7185;51.854;6.622;2022-07-15T03:15:45;8.55;;;3.88;;
14203;SDS011;7185;51.854;6.622;2022-07-15T03:18:17;8.48;;;3.63;;
14203;SDS011;7185;51.854;6.622;2022-07-15T03:20:49;9.23;;;3.58;;
14203;SDS011;7185;51.854;6.622;2022-07-15T03:23:22;12.07;;;3.63;;
14203;SDS011;7185;51.854;6.622;2022-07-15T03:25:54;8.65;;;3.78;;
14203;SDS011;7185;51.854;6.622;2022-07-15T03:28:25;11.25;;;3.83;;
14203;SDS011;7185;51.854;6.622;2022-07-15T03:30:57;16.35;;;4.10;;
14203;SDS011;7185;51.854;6.622;2022-07-15T03:33:29;11.30;;;4.00;;
14203;SDS011;7185;51.854;6.622;2022-07-15T03:36:00;10.65;;;3.70;;
14203;SDS011;7185;51.854;6.622;2022-07-15T03:38:33;7.65;;;3.60;;
14203;SDS011;7185;51.854;6.622;2022-07-15T03:41:05;6.55;;;3.28;;
14203;SDS011;7185;51.854;6.622;2022-07-15T03:43:37;9.82;;;3.42;;
14203;SDS011;7185;51.854;6.622;2022-07-15T03:46:08;8.60;;;3.70;;
14203;SDS011;7185;51.854;6.622;2022-07-15T03:48:40;11.60;;;3.42;;
14203;SDS011;7185;51.854;6.622;2022-07-15T03:51:12;8.13;;;3.42;;
14203;SDS011;7185;51.854;6.622;2022-07-15T03:53:45;9.27;;;3.70;;
14203;SDS011;7185;51.854;6.622;2022-07-15T03:56:17;12.77;;;3.47;;
14203;SDS011;7185;51.854;6.622;2022-07-15T03:58:48;10.57;;;3.55;;
14203;SDS011;7185;51.854;6.622;2022-07-15T04:01:20;6.47;;;3.28;;
14203;SDS011;7185;51.854;6.622;2022-07-15T04:03:52;7.15;;;3.60;;
14203;SDS011;7185;51.854;6.622;2022-07-15T04:06:24;7.50;;;3.40;;
14203;SDS011;7185;51.854;6.622;2022-07-15T04:09:00;7.63;;;3.42;;
14203;SDS011;7185;51.854;6.622;2022-07-15T04:11:35;9.13;;;3.83;;
14203;SDS011;7185;51.854;6.622;2022-07-15T04:14:06;8.60;;;3.70;;
14203;SDS011;7185;51.854;6.622;2022-07-15T04:16:39;9.68;;;4.43;;
14203;SDS011;7185;51.854;6.622;2022-07-15T04:19:11;11.27;;;4.30;;
14203;SDS011;7185;51.854;6.622;2022-07-15T04:21:43;9.07;;;4.97;;
14203;SDS011;7185;51.854;6.622;2022-07-15T04:24:17;13.00;;;5.05;;
14203;SDS011;7185;51.854;6.622;2022-07-15T04:26:48;16.38;;;6.40;;
14203;SDS011;7185;51.854;6.622;2022-07-15T04:29:20;16.40;;;6.05;;
14203;SDS011;7185;51.854;6.622;2022-07-15T04:31:51;18.00;;;6.93;;
14203;SDS011;7185;51.854;6.622;2022-07-15T04:34:23;15.48;;;5.88;;
14203;SDS011;7185;51.854;6.622;2022-07-15T04:36:55;12.57;;;4.38;;
14203;SDS011;7185;51.854;6.622;2022-07-15T04:39:28;9.57;;;3.70;;
14203;SDS011;7185;51.854;6.622;2022-07-15T04:41:59;8.77;;;3.50;;
14203;SDS011;7185;51.854;6.622;2022-07-15T04:44:31;9.70;;;3.50;;
14203;SDS011;7185;51.854;6.622;2022-07-15T04:47:03;13.07;;;3.92;;
14203;SDS011;7185;51.854;6.622;2022-07-15T04:49:35;8.95;;;3.47;;
14203;SDS011;7185;51.854;6.622;2022-07-15T04:52:23;7.53;;;3.45;;
14203;SDS011;7185;51.854;6.622;2022-07-15T04:54:57;7.70;;;3.65;;
14203;SDS011;7185;51.854;6.622;2022-07-15T04:57:28;8.60;;;3.30;;
14203;SDS011;7185;51.854;6.622;2022-07-15T05:00:00;8.52;;;3.50;;
14203;SDS011;7185;51.854;6.622;2022-07-15T05:02:35;8.60;;;3.42;;
14203;SDS011;7185;51.854;6.622;2022-07-15T05:05:07;8.70;;;3.90;;
14203;SDS011;7185;51.854;6.622;2022-07-15T05:07:39;9.52;;;3.92;;
14203;SDS011;7185;51.854;6.622;2022-07-15T05:10:12;9.50;;;4.00;;
14203;SDS011;7185;51.854;6.622;2022-07-15T05:12:44;9.60;;;3.72;;
14203;SDS011;7185;51.854;6.622;2022-07-15T05:15:16;7.70;;;3.30;;
14203;SDS011;7185;51.854;6.622;2022-07-15T05:17:47;8.35;;;3.13;;
14203;SDS011;7185;51.854;6.622;2022-07-15T05:20:19;9.55;;;3.75;;
14203;SDS011;7185;51.854;6.622;2022-07-15T05:22:51;11.10;;;4.00;;
14203;SDS011;7185;51.854;6.622;2022-07-15T05:25:24;12.48;;;4.13;;
14203;SDS011;7185;51.854;6.622;2022-07-15T05:27:56;9.77;;;3.67;;
14203;SDS011;7185;51.854;6.622;2022-07-15T05:30:28;7.82;;;3.10;;
14203;SDS011;7185;51.854;6.622;2022-07-15T05:33:00;9.25;;;3.40;;
14203;SDS011;7185;51.854;6.622;2022-07-15T05:35:31;12.35;;;3.85;;
14203;SDS011;7185;51.854;6.622;2022-07-15T05:38:03;7.57;;;3.72;;
14203;SDS011;7185;51.854;6.622;2022-07-15T05:40:36;8.70;;;3.53;;
14203;SDS011;7185;51.854;6.622;2022-07-15T05:43:08;6.43;;;3.50;;
14203;SDS011;7185;51.854;6.622;2022-07-15T05:45:40;8.63;;;3.55;;
14203;SDS011;7185;51.854;6.622;2022-07-15T05:48:12;10.32;;;3.95;;
14203;SDS011;7185;51.854;6.622;2022-07-15T05:50:44;7.47;;;3.83;;
14203;SDS011;7185;51.854;6.622;2022-07-15T05:53:15;11.80;;;4.13;;
14203;SDS011;7185;51.854;6.622;2022-07-15T05:55:48;10.45;;;3.80;;
14203;SDS011;7185;51.854;6.622;2022-07-15T05:58:22;8.93;;;3.42;;
14203;SDS011;7185;51.854;6.622;2022-07-15T06:00:53;6.72;;;3.22;;
14203;SDS011;7185;51.854;6.622;2022-07-15T06:03:25;8.35;;;3.80;;
14203;SDS011;7185;51.854;6.622;2022-07-15T06:05:57;8.95;;;3.50;;
14203;SDS011;7185;51.854;6.622;2022-07-15T06:08:28;9.60;;;3.30;;
14203;SDS011;7185;51.854;6.622;2022-07-15T06:11:01;10.95;;;3.63;;
14203;SDS011;7185;51.854;6.622;2022-07-15T06:13:33;7.28;;;2.97;;
14203;SDS011;7185;51.854;6.622;2022-07-15T06:16:05;10.90;;;3.40;;
14203;SDS011;7185;51.854;6.622;2022-07-15T06:18:38;11.70;;;4.07;;
14203;SDS011;7185;51.854;6.622;2022-07-15T06:21:10;10.35;;;3.20;;
14203;SDS011;7185;51.854;6.622;2022-07-15T06:23:41;7.32;;;3.10;;
14203;SDS011;7185;51.854;6.622;2022-07-15T06:26:14;9.10;;;2.80;;
14203;SDS011;7185;51.854;6.622;2022-07-15T06:28:46;7.95;;;2.60;;
14203;SDS011;7185;51.854;6.622;2022-07-15T06:31:18;8.68;;;2.58;;
14203;SDS011;7185;51.854;6.622;2022-07-15T06:33:49;6.82;;;2.55;;
14203;SDS011;7185;51.854;6.622;2022-07-15T06:36:21;7.88;;;2.55;;
14203;SDS011;7185;51.854;6.622;2022-07-15T06:38:53;13.35;;;2.25;;
14203;SDS011;7185;51.854;6.622;2022-07-15T06:41:26;6.22;;;2.15;;
14203;SDS011;7185;51.854;6.622;2022-07-15T06:43:58;8.52;;;2.20;;
14203;SDS011;7185;51.854;6.622;2022-07-15T06:46:31;12.70;;;2.60;;
14203;SDS011;7185;51.854;6.622;2022-07-15T06:49:03;5.03;;;2.08;;
14203;SDS011;7185;51.854;6.622;2022-07-15T06:51:34;5.57;;;1.80;;
14203;SDS011;7185;51.854;6.622;2022-07-15T06:54:06;5.60;;;2.10;;
14203;SDS011;7185;51.854;6.622;2022-07-15T06:56:39;9.45;;;2.88;;
14203;SDS011;7185;51.854;6.622;2022-07-15T06:59:11;7.68;;;2.50;;
14203;SDS011;7185;51.854;6.622;2022-07-15T07:01:44;5.93;;;2.20;;
14203;SDS011;7185;51.854;6.622;2022-07-15T07:04:16;4.88;;;2.15;;
14203;SDS011;7185;51.854;6.622;2022-07-15T07:06:47;8.13;;;2.10;;
14203;SDS011;7185;51.854;6.622;2022-07-15T07:09:19;7.32;;;2.45;;
14203;SDS011;7185;51.854;6.622;2022-07-15T07:11:52;8.23;;;2.22;;
14203;SDS011;7185;51.854;6.622;2022-07-15T07:14:24;12.07;;;3.63;;
14203;SDS011;7185;51.854;6.622;2022-07-15T07:16:56;8.57;;;2.45;;
14203;SDS011;7185;51.854;6.622;2022-07-15T07:19:28;5.50;;;2.30;;
14203;SDS011;7185;51.854;6.622;2022-07-15T07:21:59;7.82;;;2.50;;
14203;SDS011;7185;51.854;6.622;2022-07-15T07:24:31;5.43;;;1.65;;
14203;SDS011;7185;51.854;6.622;2022-07-15T07:27:05;8.90;;;2.22;;
14203;SDS011;7185;51.854;6.622;2022-07-15T07:29:36;6.32;;;2.05;;
14203;SDS011;7185;51.854;6.622;2022-07-15T07:32:08;13.23;;;2.58;;
14203;SDS011;7185;51.854;6.622;2022-07-15T07:34:40;9.23;;;1.90;;
14203;SDS011;7185;51.854;6.622;2022-07-15T07:37:11;8.50;;;2.00;;
14203;SDS011;7185;51.854;6.622;2022-07-15T07:39:43;6.78;;;2.17;;
14203;SDS011;7185;51.854;6.622;2022-07-15T07:42:16;5.95;;;1.60;;
14203;SDS011;7185;51.854;6.622;2022-07-15T07:44:49;4.68;;;1.70;;
14203;SDS011;7185;51.854;6.622;2022-07-15T07:47:20;5.57;;;1.48;;
14203;SDS011;7185;51.854;6.622;2022-07-15T07:49:52;7.10;;;1.40;;
14203;SDS011;7185;51.854;6.622;2022-07-15T07:52:24;7.30;;;1.45;;
14203;SDS011;7185;51.854;6.622;2022-07-15T07:54:55;6.28;;;1.52;;
14203;SDS011;7185;51.854;6.622;2022-07-15T07:57:28;6.95;;;1.40;;
14203;SDS011;7185;51.854;6.622;2022-07-15T08:00:00;5.80;;;1.48;;
14203;SDS011;7185;51.854;6.622;2022-07-15T08:02:32;8.82;;;1.58;;
14203;SDS011;7185;51.854;6.622;2022-07-15T08:05:04;5.53;;;1.50;;
14203;SDS011;7185;51.854;6.622;2022-07-15T08:07:38;5.30;;;1.23;;
14203;SDS011;7185;51.854;6.622;2022-07-15T08:10:12;5.95;;;1.52;;
14203;SDS011;7185;51.854;6.622;2022-07-15T08:12:45;5.35;;;1.40;;
14203;SDS011;7185;51.854;6.622;2022-07-15T08:15:17;4.53;;;1.23;;
14203;SDS011;7185;51.854;6.622;2022-07-15T08:17:49;4.90;;;1.23;;
14203;SDS011;7185;51.854;6.622;2022-07-15T08:20:21;2.95;;;1.23;;
14203;SDS011;7185;51.854;6.622;2022-07-15T08:22:53;5.90;;;1.00;;
14203;SDS011;7185;51.854;6.622;2022-07-15T08:25:29;4.70;;;1.25;;
14203;SDS011;7185;51.854;6.622;2022-07-15T08:28:04;3.67;;;1.45;;
14203;SDS011;7185;51.854;6.622;2022-07-15T08:30:37;7.07;;;1.30;;
14203;SDS011;7185;51.854;6.622;2022-07-15T08:33:09;8.20;;;1.30;;
14203;SDS011;7185;51.854;6.622;2022-07-15T08:35:40;4.75;;;1.00;;
14203;SDS011;7185;51.854;6.622;2022-07-15T08:38:13;4.82;;;0.90;;
14203;SDS011;7185;51.854;6.622;2022-07-15T08:40:44;3.72;;;1.00;;
14203;SDS011;7185;51.854;6.622;2022-07-15T08:43:17;4.32;;;1.00;;
14203;SDS011;7185;51.854;6.622;2022-07-15T08:45:49;4.20;;;0.80;;
14203;SDS011;7185;51.854;6.622;2022-07-15T08:48:22;3.90;;;0.95;;
14203;SDS011;7185;51.854;6.622;2022-07-15T08:50:58;3.45;;;1.17;;
14203;SDS011;7185;51.854;6.622;2022-07-15T08:53:33;3.28;;;0.90;;
14203;SDS011;7185;51.854;6.622;2022-07-15T08:56:05;4.40;;;0.95;;
14203;SDS011;7185;51.854;6.622;2022-07-15T08:58:39;6.28;;;1.05;;
14203;SDS011;7185;51.854;6.622;2022-07-15T09:01:11;4.93;;;0.93;;
14203;SDS011;7185;51.854;6.622;2022-07-15T09:03:42;3.22;;;1.02;;
14203;SDS011;7185;51.854;6.622;2022-07-15T09:06:29;5.60;;;0.70;;
14203;SDS011;7185;51.854;6.622;2022-07-15T09:11:54;4.63;;;1.00;;
14203;SDS011;7185;51.854;6.622;2022-07-15T09:14:36;3.83;;;1.10;;
14203;SDS011;7185;51.854;6.622;2022-07-15T09:19:59;4.03;;;0.80;;
14203;SDS011;7185;51.854;6.622;2022-07-15T09:22:33;3.97;;;0.90;;
14203;SDS011;7185;51.854;6.622;2022-07-15T09:25:19;4.18;;;0.93;;
14203;SDS011;7185;51.854;6.622;2022-07-15T09:27:51;4.72;;;0.80;;
14203;SDS011;7185;51.854;6.622;2022-07-15T09:30:25;3.03;;;1.13;;
14203;SDS011;7185;51.854;6.622;2022-07-15T09:33:16;4.63;;;1.20;;
14203;SDS011;7185;51.854;6.622;2022-07-15T09:36:16;2.63;;;0.65;;
14203;SDS011;7185;51.854;6.622;2022-07-15T09:38:51;3.75;;;0.70;;
14203;SDS011;7185;51.854;6.622;2022-07-15T09:41:25;3.35;;;0.90;;
14203;SDS011;7185;51.854;6.622;2022-07-15T09:44:00;3.78;;;0.80;;
14203;SDS011;7185;51.854;6.622;2022-07-15T09:46:45;2.08;;;0.60;;
14203;SDS011;7185;51.854;6.622;2022-07-15T09:49:30;2.50;;;0.60;;
14203;SDS011;7185;51.854;6.622;2022-07-15T09:52:04;3.08;;;1.02;;
14203;SDS011;7185;51.854;6.622;2022-07-15T09:54:38;2.97;;;0.65;;
14203;SDS011;7185;51.854;6.622;2022-07-15T09:57:11;1.50;;;0.60;;
14203;SDS011;7185;51.854;6.622;2022-07-15T09:59:45;2.28;;;0.77;;
14203;SDS011;7185;51.854;6.622;2022-07-15T10:02:19;1.52;;;0.52;;
14203;SDS011;7185;51.854;6.622;2022-07-15T10:04:51;2.28;;;0.60;;
14203;SDS011;7185;51.854;6.622;2022-07-15T10:07:23;2.83;;;0.80;;
14203;SDS011;7185;51.854;6.622;2022-07-15T10:09:57;2.70;;;0.73;;
14203;SDS011;7185;51.854;6.622;2022-07-15T10:12:30;2.03;;;0.50;;
14203;SDS011;7185;51.854;6.622;2022-07-15T10:15:20;1.02;;;0.43;;
14203;SDS011;7185;51.854;6.622;2022-07-15T10:18:14;1.77;;;0.60;;
14203;SDS011;7185;51.854;6.622;2022-07-15T10:23:56;3.90;;;0.57;;
14203;SDS011;7185;51.854;6.622;2022-07-15T10:26:48;1.33;;;0.50;;
14203;SDS011;7185;51.854;6.622;2022-07-15T10:29:28;4.25;;;0.98;;
14203;SDS011;7185;51.854;6.622;2022-07-15T10:32:00;2.78;;;0.82;;
14203;SDS011;7185;51.854;6.622;2022-07-15T10:34:37;2.13;;;0.60;;
14203;SDS011;7185;51.854;6.622;2022-07-15T10:37:10;2.70;;;0.63;;
14203;SDS011;7185;51.854;6.622;2022-07-15T10:39:47;4.10;;;0.50;;
14203;SDS011;7185;51.854;6.622;2022-07-15T10:42:20;1.38;;;0.38;;
14203;SDS011;7185;51.854;6.622;2022-07-15T10:45:03;2.45;;;0.60;;
14203;SDS011;7185;51.854;6.622;2022-07-15T10:47:38;1.55;;;0.50;;
14203;SDS011;7185;51.854;6.622;2022-07-15T10:53:15;3.47;;;1.05;;
14203;SDS011;7185;51.854;6.622;2022-07-15T10:55:48;3.90;;;0.68;;
14203;SDS011;7185;51.854;6.622;2022-07-15T10:58:20;2.95;;;0.60;;
14203;SDS011;7185;51.854;6.622;2022-07-15T11:00:53;2.42;;;0.70;;
14203;SDS011;7185;51.854;6.622;2022-07-15T11:03:24;3.65;;;0.90;;
14203;SDS011;7185;51.854;6.622;2022-07-15T11:06:01;1.77;;;0.55;;
14203;SDS011;7185;51.854;6.622;2022-07-15T11:08:49;1.73;;;0.60;;
14203;SDS011;7185;51.854;6.622;2022-07-15T11:17:20;2.03;;;0.55;;
14203;SDS011;7185;51.854;6.622;2022-07-15T11:19:55;3.28;;;0.47;;
14203;SDS011;7185;51.854;6.622;2022-07-15T11:22:29;2.85;;;0.50;;
14203;SDS011;7185;51.854;6.622;2022-07-15T11:25:02;2.17;;;0.70;;
14203;SDS011;7185;51.854;6.622;2022-07-15T11:27:35;2.60;;;0.80;;
14203;SDS011;7185;51.854;6.622;2022-07-15T11:30:06;2.67;;;0.60;;
14203;SDS011;7185;51.854;6.622;2022-07-15T11:32:38;2.05;;;0.65;;
14203;SDS011;7185;51.854;6.622;2022-07-15T11:35:10;3.30;;;0.60;;
14203;SDS011;7185;51.854;6.622;2022-07-15T11:37:43;3.35;;;0.50;;
14203;SDS011;7185;51.854;6.622;2022-07-15T11:40:15;2.55;;;0.50;;
14203;SDS011;7185;51.854;6.622;2022-07-15T11:43:02;1.27;;;0.50;;
14203;SDS011;7185;51.854;6.622;2022-07-15T11:45:52;2.40;;;0.55;;
14203;SDS011;7185;51.854;6.622;2022-07-15T11:48:24;1.92;;;0.50;;
14203;SDS011;7185;51.854;6.622;2022-07-15T11:50:56;1.55;;;0.50;;
14203;SDS011;7185;51.854;6.622;2022-07-15T11:53:33;4.68;;;0.85;;
14203;SDS011;7185;51.854;6.622;2022-07-15T11:56:06;2.45;;;0.68;;
14203;SDS011;7185;51.854;6.622;2022-07-15T11:58:40;0.90;;;0.40;;
14203;SDS011;7185;51.854;6.622;2022-07-15T12:01:16;1.63;;;0.47;;
14203;SDS011;7185;51.854;6.622;2022-07-15T12:03:51;1.20;;;0.43;;
14203;SDS011;7185;51.854;6.622;2022-07-15T12:06:26;1.77;;;0.43;;
14203;SDS011;7185;51.854;6.622;2022-07-15T12:11:34;1.67;;;0.60;;
14203;SDS011;7185;51.854;6.622;2022-07-15T12:14:08;1.08;;;0.40;;
14203;SDS011;7185;51.854;6.622;2022-07-15T12:16:43;2.17;;;0.60;;
14203;SDS011;7185;51.854;6.622;2022-07-15T12:19:16;1.40;;;0.40;;
14203;SDS011;7185;51.854;6.622;2022-07-15T12:21:50;2.20;;;0.55;;
14203;SDS011;7185;51.854;6.622;2022-07-15T12:24:25;2.10;;;0.40;;
14203;SDS011;7185;51.854;6.622;2022-07-15T12:27:06;1.55;;;0.52;;
14203;SDS011;7185;51.854;6.622;2022-07-15T12:29:39;3.95;;;0.70;;
14203;SDS011;7185;51.854;6.622;2022-07-15T12:32:12;2.55;;;0.60;;
14203;SDS011;7185;51.854;6.622;2022-07-15T12:34:50;1.40;;;0.50;;
14203;SDS011;7185;51.854;6.622;2022-07-15T12:37:24;1.88;;;0.60;;
14203;SDS011;7185;51.854;6.622;2022-07-15T12:39:59;1.48;;;0.55;;
14203;SDS011;7185;51.854;6.622;2022-07-15T12:42:32;1.15;;;0.30;;
14203;SDS011;7185;51.854;6.622;2022-07-15T12:45:24;1.00;;;0.52;;
14203;SDS011;7185;51.854;6.622;2022-07-15T12:47:58;2.20;;;0.57;;
14203;SDS011;7185;51.854;6.622;2022-07-15T12:50:31;1.45;;;0.43;;
14203;SDS011;7185;51.854;6.622;2022-07-15T12:53:12;2.85;;;0.50;;
14203;SDS011;7185;51.854;6.622;2022-07-15T12:55:48;1.42;;;0.60;;
14203;SDS011;7185;51.854;6.622;2022-07-15T12:58:23;2.50;;;0.60;;
14203;SDS011;7185;51.854;6.622;2022-07-15T13:01:03;3.08;;;0.70;;
14203;SDS011;7185;51.854;6.622;2022-07-15T13:03:39;2.10;;;0.90;;
14203;SDS011;7185;51.854;6.622;2022-07-15T13:06:11;3.38;;;0.60;;
14203;SDS011;7185;51.854;6.622;2022-07-15T13:08:44;3.50;;;0.60;;
14203;SDS011;7185;51.854;6.622;2022-07-15T13:11:17;2.40;;;0.50;;
14203;SDS011;7185;51.854;6.622;2022-07-15T13:13:50;3.45;;;0.63;;
14203;SDS011;7185;51.854;6.622;2022-07-15T13:16:21;2.65;;;0.63;;
14203;SDS011;7185;51.854;6.622;2022-07-15T13:18:53;4.68;;;0.80;;
14203;SDS011;7185;51.854;6.622;2022-07-15T13:21:25;5.00;;;0.65;;
14203;SDS011;7185;51.854;6.622;2022-07-15T13:23:56;1.33;;;0.50;;
14203;SDS011;7185;51.854;6.622;2022-07-15T13:26:29;2.17;;;0.55;;
14203;SDS011;7185;51.854;6.622;2022-07-15T13:29:01;3.50;;;0.80;;
14203;SDS011;7185;51.854;6.622;2022-07-15T13:31:33;3.95;;;0.90;;
14203;SDS011;7185;51.854;6.622;2022-07-15T13:34:04;2.63;;;0.63;;
14203;SDS011;7185;51.854;6.622;2022-07-15T13:36:36;2.28;;;0.70;;
14203;SDS011;7185;51.854;6.622;2022-07-15T13:39:08;3.65;;;0.68;;
14203;SDS011;7185;51.854;6.622;2022-07-15T13:41:41;2.85;;;0.88;;
14203;SDS011;7185;51.854;6.622;2022-07-15T13:44:16;4.30;;;0.90;;
14203;SDS011;7185;51.854;6.622;2022-07-15T13:46:47;1.60;;;0.60;;
14203;SDS011;7185;51.854;6.622;2022-07-15T13:49:19;5.25;;;0.85;;
14203;SDS011;7185;51.854;6.622;2022-07-15T13:52:11;4.10;;;0.93;;
14203;SDS011;7185;51.854;6.622;2022-07-15T13:54:42;4.05;;;0.90;;
14203;SDS011;7185;51.854;6.622;2022-07-15T13:57:15;2.42;;;0.70;;
14203;SDS011;7185;51.854;6.622;2022-07-15T13:59:47;1.52;;;0.60;;
14203;SDS011;7185;51.854;6.622;2022-07-15T14:02:18;2.75;;;0.70;;
14203;SDS011;7185;51.854;6.622;2022-07-15T14:04:50;1.88;;;0.60;;
14203;SDS011;7185;51.854;6.622;2022-07-15T14:07:22;4.03;;;0.60;;
14203;SDS011;7185;51.854;6.622;2022-07-15T14:09:54;2.45;;;0.60;;
14203;SDS011;7185;51.854;6.622;2022-07-15T14:12:27;2.33;;;0.90;;
14203;SDS011;7185;51.854;6.622;2022-07-15T14:14:59;2.40;;;0.80;;
14203;SDS011;7185;51.854;6.622;2022-07-15T14:17:32;4.72;;;1.13;;
14203;SDS011;7185;51.854;6.622;2022-07-15T14:20:05;1.83;;;0.73;;
14203;SDS011;7185;51.854;6.622;2022-07-15T14:22:38;1.65;;;0.60;;
14203;SDS011;7185;51.854;6.622;2022-07-15T14:25:09;2.47;;;0.65;;
14203;SDS011;7185;51.854;6.622;2022-07-15T14:27:42;4.88;;;1.10;;
14203;SDS011;7185;51.854;6.622;2022-07-15T14:30:15;7.05;;;0.88;;
14203;SDS011;7185;51.854;6.622;2022-07-15T14:32:47;4.28;;;0.98;;
14203;SDS011;7185;51.854;6.622;2022-07-15T14:35:18;2.00;;;0.70;;
14203;SDS011;7185;51.854;6.622;2022-07-15T14:37:51;3.03;;;0.73;;
14203;SDS011;7185;51.854;6.622;2022-07-15T14:40:23;4.45;;;0.70;;
14203;SDS011;7185;51.854;6.622;2022-07-15T14:42:56;2.28;;;0.65;;
14203;SDS011;7185;51.854;6.622;2022-07-15T14:45:27;2.83;;;1.00;;
14203;SDS011;7185;51.854;6.622;2022-07-15T14:47:59;2.90;;;0.80;;
14203;SDS011;7185;51.854;6.622;2022-07-15T14:50:31;4.20;;;0.90;;
14203;SDS011;7185;51.854;6.622;2022-07-15T14:53:03;4.43;;;0.80;;
14203;SDS011;7185;51.854;6.622;2022-07-15T14:55:35;2.95;;;0.90;;
14203;SDS011;7185;51.854;6.622;2022-07-15T14:58:08;4.30;;;1.45;;
14203;SDS011;7185;51.854;6.622;2022-07-15T15:00:42;2.67;;;0.90;;
14203;SDS011;7185;51.854;6.622;2022-07-15T15:03:14;5.70;;;1.15;;
14203;SDS011;7185;51.854;6.622;2022-07-15T15:05:47;3.42;;;1.05;;
14203;SDS011;7185;51.854;6.622;2022-07-15T15:08:19;5.00;;;1.23;;
14203;SDS011;7185;51.854;6.622;2022-07-15T15:10:50;5.38;;;0.98;;
14203;SDS011;7185;51.854;6.622;2022-07-15T15:13:24;4.03;;;0.90;;
14203;SDS011;7185;51.854;6.622;2022-07-15T15:15:55;5.95;;;1.00;;
14203;SDS011;7185;51.854;6.622;2022-07-15T15:18:27;2.72;;;0.60;;
14203;SDS011;7185;51.854;6.622;2022-07-15T15:20:59;3.65;;;0.70;;
14203;SDS011;7185;51.854;6.622;2022-07-15T15:23:31;2.03;;;0.80;;
14203;SDS011;7185;51.854;6.622;2022-07-15T15:26:04;4.53;;;1.30;;
14203;SDS011;7185;51.854;6.622;2022-07-15T15:28:56;3.78;;;0.88;;
14203;SDS011;7185;51.854;6.622;2022-07-15T15:31:29;4.25;;;0.93;;
14203;SDS011;7185;51.854;6.622;2022-07-15T15:34:00;6.05;;;1.23;;
14203;SDS011;7185;51.854;6.622;2022-07-15T15:36:32;7.40;;;1.00;;
14203;SDS011;7185;51.854;6.622;2022-07-15T15:39:04;1.95;;;0.93;;
14203;SDS011;7185;51.854;6.622;2022-07-15T15:41:36;2.80;;;0.73;;
14203;SDS011;7185;51.854;6.622;2022-07-15T15:44:09;4.55;;;0.90;;
14203;SDS011;7185;51.854;6.622;2022-07-15T15:46:42;2.90;;;0.90;;
14203;SDS011;7185;51.854;6.622;2022-07-15T15:49:14;2.10;;;0.80;;
14203;SDS011;7185;51.854;6.622;2022-07-15T15:51:46;3.13;;;0.70;;
14203;SDS011;7185;51.854;6.622;2022-07-15T15:54:18;4.88;;;1.00;;
14203;SDS011;7185;51.854;6.622;2022-07-15T15:56:49;3.90;;;0.80;;
14203;SDS011;7185;51.854;6.622;2022-07-15T15:59:22;2.90;;;0.90;;